Time;durP1;ratioP1;P1;durP2;ratioP2;P2;SDS_P1;SDS_P2;PMS_P1;PMS_P2;Temp;Humidity;BMP_temperature;BMP_pressure;BME280_temperature;BME280_humidity;BME280_pressure;Samples;Min_cycle;Max_cycle;Signal;HPM_P1;HPM_P2
2023/03/24 00:00:10;;;;;;;9.88;3.10;;;;;;;13.94;100.00;99721.13;5023359;28;20057;-76
2023/03/24 00:02:40;;;;;;;5.10;1.55;;;;;;;13.76;100.00;99717.31;5021154;28;20430;-74
2023/03/24 00:05:09;;;;;;;8.43;2.60;;;;;;;13.94;100.00;99712.78;5014597;28;20400;-76
2023/03/24 00:07:37;;;;;;;7.43;2.53;;;;;;;13.97;100.00;99717.47;5021552;28;20104;-74
2023/03/24 00:10:08;;;;;;;6.80;2.65;;;;;;;14.05;100.00;99712.47;5019516;28;20063;-74
2023/03/24 00:12:41;;;;;;;5.30;1.67;;;;;;;13.96;100.00;99706.78;5018590;28;20068;-75
2023/03/24 00:15:12;;;;;;;4.55;2.25;;;;;;;14.01;100.00;99703.47;5022812;28;20049;-74
2023/03/24 00:17:39;;;;;;;8.00;2.03;;;;;;;13.90;100.00;99705.81;5024681;28;20518;-76
2023/03/24 00:20:13;;;;;;;9.88;2.88;;;;;;;13.94;100.00;99707.22;5023254;28;20409;-74
2023/03/24 00:22:41;;;;;;;5.07;1.45;;;;;;;13.94;100.00;99707.22;5022881;28;20041;-75
2023/03/24 00:25:09;;;;;;;3.78;1.38;;;;;;;13.87;100.00;99696.31;5014359;28;20045;-75
2023/03/24 00:27:37;;;;;;;11.00;2.70;;;;;;;14.00;100.00;99694.34;5013058;28;20045;-78
2023/03/24 00:30:08;;;;;;;5.80;1.88;;;;;;;14.04;100.00;99695.00;5008521;28;20132;-77
2023/03/24 00:32:38;;;;;;;3.95;1.90;;;;;;;13.93;100.00;99691.78;5020410;28;20929;-75
2023/03/24 00:35:11;;;;;;;5.68;2.45;;;;;;;14.04;100.00;99692.22;5023311;28;20049;-77
2023/03/24 00:37:40;;;;;;;6.65;2.30;;;;;;;13.99;100.00;99676.09;5023862;28;20597;-74
2023/03/24 00:40:11;;;;;;;8.82;2.63;;;;;;;14.12;100.00;99681.66;5018268;28;20140;-75
2023/03/24 00:42:44;;;;;;;2.75;1.42;;;;;;;13.96;100.00;99671.44;5016672;28;20143;-75
2023/03/24 00:45:14;;;;;;;2.40;0.68;;;;;;;14.07;100.00;99663.50;5014912;28;20079;-74
2023/03/24 00:47:43;;;;;;;8.73;2.53;;;;;;;14.12;100.00;99659.41;5018766;28;20092;-74
2023/03/24 00:50:19;;;;;;;6.13;2.50;;;;;;;14.08;100.00;99653.97;5017642;28;20052;-73
2023/03/24 00:52:47;;;;;;;5.55;2.42;;;;;;;14.02;100.00;99633.50;5013558;28;20049;-74
2023/03/24 00:55:15;;;;;;;10.00;4.40;;;;;;;14.12;100.00;99632.38;5042321;23;20491;-73
2023/03/24 00:57:50;;;;;;;6.45;2.03;;;;;;;14.03;100.00;99626.69;5059402;28;20147;-76
2023/03/24 01:00:19;;;;;;;;;;;;;;;14.15;100.00;99622.34;5064183;28;20055;-76
2023/03/24 01:02:53;;;;;;;6.00;2.38;;;;;;;14.18;100.00;99613.88;5058602;28;19921;-75
2023/03/24 01:05:28;;;;;;;3.92;1.77;;;;;;;14.15;100.00;99622.34;5062330;28;20044;-76
2023/03/24 01:07:57;;;;;;;1.98;0.80;;;;;;;14.09;100.00;99619.34;5059951;28;20099;-76
2023/03/24 01:10:26;;;;;;;6.53;2.67;;;;;;;14.19;100.00;99609.88;5062919;28;20044;-77
2023/03/24 01:12:55;;;;;;;9.70;2.30;;;;;;;14.16;100.00;99610.78;5057706;28;20041;-74
2023/03/24 01:15:26;;;;;;;9.93;2.63;;;;;;;14.20;100.00;99602.31;5046861;28;20111;-75
2023/03/24 01:17:53;;;;;;;5.20;2.00;;;;;;;14.19;100.00;99598.75;5056810;28;20048;-75
2023/03/24 01:20:22;;;;;;;4.20;1.60;;;;;;;14.09;100.00;99591.53;5061444;28;20044;-77
2023/03/24 01:22:49;;;;;;;8.18;2.45;;;;;;;14.19;100.00;99595.19;5059888;28;20045;-76
2023/03/24 01:25:19;;;;;;;4.93;2.22;;;;;;;14.25;100.00;99602.56;5059514;28;20127;-76
2023/03/24 01:27:47;;;;;;;3.47;1.35;;;;;;;14.19;100.00;99598.75;5062708;28;20128;-77
2023/03/24 01:30:16;;;;;;;7.13;2.63;;;;;;;14.21;100.00;99596.28;5060298;28;20049;-75
2023/03/24 01:32:43;;;;;;;7.05;2.30;;;;;;;14.16;100.00;99602.44;5053627;28;20342;-78
2023/03/24 01:35:10;;;;;;;4.45;1.77;;;;;;;14.20;100.00;99597.53;5060521;28;20067;-77
2023/03/24 01:37:38;;;;;;;4.57;2.20;;;;;;;14.24;100.00;99581.50;5057676;28;20052;-77
2023/03/24 01:40:08;;;;;;;3.38;1.35;;;;;;;14.17;100.00;99581.72;5059250;28;20090;-78
2023/03/24 01:42:36;;;;;;;6.00;2.40;;;;;;;14.18;100.00;99586.06;5056386;28;20076;-75
2023/03/24 01:45:37;;;;;;;5.55;2.65;;;;;;;14.14;100.00;99579.84;5060372;28;20049;-75
2023/03/24 01:48:07;;;;;;;1.83;0.77;;;;;;;14.13;100.00;99564.38;5060244;28;20072;-75
2023/03/24 01:50:34;;;;;;;4.07;1.50;;;;;;;14.17;100.00;99567.06;5055233;28;20064;-76
2023/03/24 01:53:01;;;;;;;5.50;1.98;;;;;;;14.24;100.00;99564.81;5060739;28;20818;-75
2023/03/24 01:55:30;;;;;;;7.97;3.20;;;;;;;14.30;100.00;99557.47;5038032;28;20059;-75
2023/03/24 01:57:59;;;;;;;2.58;1.38;;;;;;;14.19;100.00;99548.69;5067959;28;20044;-75
2023/03/24 02:00:26;;;;;;;7.15;2.58;;;;;;;14.23;100.00;99540.22;5063759;28;20052;-77
2023/03/24 02:03:00;;;;;;;8.60;3.47;;;;;;;14.24;100.00;99536.25;5055841;28;20406;-75
2023/03/24 02:05:34;;;;;;;2.20;1.15;;;;;;;14.22;100.00;99525.56;5045763;28;20056;-76
2023/03/24 02:08:03;;;;;;;8.18;2.95;;;;;;;14.35;100.00;99522.75;5055598;28;20491;-76
2023/03/24 02:10:32;;;;;;;7.65;2.38;;;;;;;14.34;100.00;99505.25;5057669;28;20407;-76
2023/03/24 02:13:00;;;;;;;5.50;3.10;;;;;;;14.36;100.00;99510.38;5043650;28;20106;-74
2023/03/24 02:15:30;;;;;;;6.10;2.67;;;;;;;14.39;100.00;99501.91;5063408;28;20044;-76
2023/03/24 02:18:17;;;;;;;8.45;3.10;;;;;;;14.31;100.00;99495.03;5064353;28;20044;-76
2023/03/24 02:21:05;;;;;;;5.55;2.33;;;;;;;14.10;100.00;99495.75;5043468;28;20071;-76
2023/03/24 02:23:35;;;;;;;4.53;2.05;;;;;;;14.21;100.00;99487.03;5060436;28;20036;-75
2023/03/24 02:26:25;;;;;;;7.38;3.20;;;;;;;14.19;100.00;99490.28;5065223;28;20054;-75
2023/03/24 02:29:02;;;;;;;6.85;3.20;;;;;;;14.23;100.00;99479.81;5058142;28;20060;-76
2023/03/24 02:31:44;;;;;;;8.38;2.88;;;;;;;14.17;100.00;99492.72;5055461;28;20131;-75
2023/03/24 02:34:42;;;;;;;8.15;3.67;;;;;;;14.22;100.00;99481.06;5060207;28;20125;-75
2023/03/24 02:37:26;;;;;;;3.28;2.08;;;;;;;14.09;100.00;99474.72;5060095;28;20056;-76
2023/03/24 02:40:14;;;;;;;2.63;1.25;;;;;;;14.16;100.00;99479.25;5054093;28;21885;-73
2023/03/24 02:42:48;;;;;;;2.17;1.42;;;;;;;14.08;100.00;99473.19;5053036;28;20048;-77
2023/03/24 02:45:26;;;;;;;10.55;3.97;;;;;;;14.18;100.00;99472.00;5052022;28;20045;-75
2023/03/24 02:48:13;;;;;;;8.45;3.47;;;;;;;14.08;100.00;99458.50;5058344;28;20045;-74
2023/03/24 02:50:39;;;;;;;12.60;4.57;;;;;;;14.18;100.00;99457.34;5060552;28;20044;-75
2023/03/24 02:53:24;;;;;;;4.78;2.00;;;;;;;14.00;100.00;99471.09;5051221;28;20055;-75
2023/03/24 02:56:03;;;;;;;8.23;3.40;;;;;;;14.13;100.00;99458.69;5058290;28;20063;-74
2023/03/24 02:58:37;;;;;;;6.38;3.25;;;;;;;14.15;100.00;99459.03;5053194;28;20380;-74
2023/03/24 03:01:16;;;;;;;12.27;1.93;;;;;;;14.15;100.00;99450.69;5052078;28;20060;-76
2023/03/24 03:03:52;;;;;;;8.68;3.42;;;;;;;14.19;100.00;99442.19;5063228;28;20048;-75
2023/03/24 03:06:27;;;;;;;8.45;3.75;;;;;;;14.20;100.00;99429.84;5049185;28;20088;-76
2023/03/24 03:08:56;;;;;;;11.13;4.10;;;;;;;14.20;100.00;99425.06;5066597;28;20058;-74
2023/03/24 03:11:22;;;;;;;5.97;2.97;;;;;;;14.19;100.00;99439.41;5066132;28;20438;-76
2023/03/24 03:13:58;;;;;;;5.57;2.47;;;;;;;14.18;100.00;99430.28;5066340;28;20131;-76
2023/03/24 03:16:37;;;;;;;7.63;3.45;;;;;;;14.23;100.00;99426.19;5066043;28;20048;-75
2023/03/24 03:19:18;;;;;;;9.77;2.33;;;;;;;14.23;100.00;99423.41;5059284;28;20080;-75
2023/03/24 03:21:49;;;;;;;7.88;3.72;;;;;;;14.36;100.00;99416.56;5064416;28;20041;-74
2023/03/24 03:24:26;;;;;;;5.95;1.92;;;;;;;14.37;100.00;99409.75;5063575;28;20045;-75
2023/03/24 03:27:04;;;;;;;5.22;2.17;;;;;;;14.38;100.00;99413.31;5066403;28;20104;-76
2023/03/24 03:29:38;;;;;;;2.72;1.55;;;;;;;14.47;100.00;99407.78;5046007;28;20049;-73
2023/03/24 03:32:09;;;;;;;4.15;1.90;;;;;;;14.45;100.00;99427.72;5062802;28;20036;-74
2023/03/24 03:34:48;;;;;;;6.57;2.72;;;;;;;14.57;100.00;99409.41;5062269;28;20044;-73
2023/03/24 03:37:18;;;;;;;7.30;1.85;;;;;;;14.59;100.00;99426.44;5062375;28;20052;-74
2023/03/24 03:40:11;;;;;;;2.53;1.80;;;;;;;14.65;100.00;99417.03;5060057;28;20048;-75
2023/03/24 03:42:38;;;;;;;8.88;2.90;;;;;;;14.64;100.00;99409.91;5059457;28;20044;-74
2023/03/24 03:45:08;;;;;;;8.40;4.00;;;;;;;14.84;100.00;99401.97;5058797;28;20493;-75
2023/03/24 03:47:35;;;;;;;4.38;1.98;;;;;;;14.76;100.00;99419.41;5058905;28;20056;-74
2023/03/24 03:50:03;;;;;;;8.75;3.15;;;;;;;14.94;100.00;99398.00;5053910;28;20049;-76
2023/03/24 03:52:31;;;;;;;8.85;3.22;;;;;;;14.95;100.00;99421.81;5057565;28;20036;-75
2023/03/24 03:54:57;;;;;;;6.13;2.13;;;;;;;14.98;100.00;99395.84;5055334;28;20049;-75
2023/03/24 03:57:24;;;;;;;3.70;2.25;;;;;;;14.93;100.00;99410.38;5067389;28;20048;-74
2023/03/24 03:59:50;;;;;;;6.25;3.42;;;;;;;14.92;100.00;99411.59;5057750;28;20049;-76
2023/03/24 04:02:32;;;;;;;3.63;2.28;;;;;;;14.99;100.00;99408.53;5055235;28;20037;-72
2023/03/24 04:04:58;;;;;;;7.10;2.22;;;;;;;15.05;100.00;99417.84;5060050;28;20105;-76
2023/03/24 04:08:02;;;;;;;5.30;2.20;;;;;;;15.08;100.00;99422.50;5043929;28;20469;-77
2023/03/24 04:10:47;;;;;;;6.25;2.50;;;;;;;15.06;100.00;99424.19;5059223;28;20068;-76
2023/03/24 04:13:44;;;;;;;4.65;1.65;;;;;;;15.12;100.00;99434.28;5053932;28;20053;-75
2023/03/24 04:16:32;;;;;;;5.32;1.88;;;;;;;15.12;100.00;99445.41;5060308;28;20590;-76
2023/03/24 04:19:19;;;;;;;4.68;2.38;;;;;;;15.09;100.00;99437.97;5055205;28;20049;-75
2023/03/24 04:22:08;;;;;;;2.10;1.40;;;;;;;15.11;100.00;99449.44;5060848;28;20052;-76
2023/03/24 04:25:29;;;;;;;4.32;2.20;;;;;;;15.00;100.00;99445.53;5056104;28;20048;-75
2023/03/24 04:28:25;;;;;;;8.93;3.95;;;;;;;14.84;100.00;99468.81;5026684;28;20049;-75
2023/03/24 04:31:15;;;;;;;8.45;3.42;;;;;;;15.00;100.00;99462.22;5018693;28;20104;-75
2023/03/24 04:33:49;;;;;;;5.43;2.30;;;;;;;15.08;100.00;99455.13;5055095;28;20127;-76
2023/03/24 04:36:27;;;;;;;2.67;1.88;;;;;;;15.20;100.00;99455.06;5059059;28;20133;-74
2023/03/24 04:38:56;;;;;;;10.38;3.25;;;;;;;15.02;100.00;99485.59;5056631;28;20450;-76
2023/03/24 04:41:27;;;;;;;7.43;2.33;;;;;;;15.00;100.00;99473.38;5050775;28;20061;-73
2023/03/24 04:43:56;;;;;;;7.90;3.45;;;;;;;14.89;100.00;99468.19;5055039;28;20135;-75
2023/03/24 04:46:23;;;;;;;8.70;2.75;;;;;;;15.13;100.00;99451.78;5052781;28;20053;-75
2023/03/24 04:48:50;;;;;;;4.28;2.17;;;;;;;14.92;100.00;99461.72;5058530;28;20598;-73
2023/03/24 04:51:18;;;;;;;5.95;1.80;;;;;;;14.82;100.00;99467.72;5051095;28;20056;-72
2023/03/24 04:53:45;;;;;;;4.55;1.90;;;;;;;14.80;100.00;99462.59;5056530;28;20040;-76
2023/03/24 04:56:15;;;;;;;4.35;2.08;;;;;;;14.99;100.00;99480.19;5051248;28;20055;-75
2023/03/24 04:58:41;;;;;;;1.52;1.20;;;;;;;15.11;100.00;99488.44;5055425;28;20608;-75
2023/03/24 05:01:08;;;;;;;4.88;1.50;;;;;;;15.01;100.00;99503.56;5058067;28;20702;-75
2023/03/24 05:03:36;;;;;;;4.43;1.95;;;;;;;14.96;100.00;99506.91;5053413;28;20052;-76
2023/03/24 05:06:04;;;;;;;5.50;2.40;;;;;;;15.00;100.00;99523.50;5059024;28;20052;-76
2023/03/24 05:08:32;;;;;;;6.82;2.33;;;;;;;14.91;100.00;99524.22;5065458;28;20056;-75
2023/03/24 05:11:01;;;;;;;2.33;1.17;;;;;;;15.14;100.00;99526.53;5065858;28;20048;-75
2023/03/24 05:13:27;;;;;;;3.20;1.33;;;;;;;15.07;100.00;99570.59;5063106;28;20048;-72
2023/03/24 05:15:54;;;;;;;2.00;1.55;;;;;;;15.05;100.00;99551.53;5058428;28;20052;-77
2023/03/24 05:18:21;;;;;;;2.42;1.55;;;;;;;15.15;100.00;99557.94;5064767;28;20064;-76
2023/03/24 05:20:48;;;;;;;3.83;1.88;;;;;;;14.90;100.00;99567.25;5055261;28;20204;-73
2023/03/24 05:23:15;;;;;;;5.05;2.20;;;;;;;15.15;100.00;99575.44;5058071;28;20048;-77
2023/03/24 05:25:41;;;;;;;2.80;1.33;;;;;;;14.95;100.00;99582.59;5063396;28;20056;-75
2023/03/24 05:28:08;;;;;;;2.95;1.38;;;;;;;14.95;100.00;99577.03;5069921;28;20055;-76
2023/03/24 05:30:35;;;;;;;3.17;1.67;;;;;;;14.93;100.00;99602.53;5045661;28;20049;-76
2023/03/24 05:33:01;;;;;;;4.65;0.90;;;;;;;14.80;100.00;99610.19;5063385;28;20044;-76
2023/03/24 05:35:28;;;;;;;6.88;2.10;;;;;;;14.83;100.00;99603.72;5060652;28;20045;-73
2023/03/24 05:37:54;;;;;;;1.65;0.95;;;;;;;14.59;100.00;99616.50;5062609;28;20499;-77
2023/03/24 05:40:21;;;;;;;3.10;1.08;;;;;;;14.56;100.00;99617.41;5060194;28;20056;-77
2023/03/24 05:42:49;;;;;;;4.22;1.95;;;;;;;14.55;100.00;99621.38;5058491;28;20037;-73
2023/03/24 05:45:16;;;;;;;4.03;2.17;;;;;;;14.54;100.00;99633.75;5060506;28;20132;-77
2023/03/24 05:47:42;;;;;;;3.58;1.90;;;;;;;14.31;100.00;99661.97;5043575;28;20127;-75
2023/03/24 05:50:09;;;;;;;7.50;2.25;;;;;;;14.31;100.00;99658.41;5066709;28;20047;-76
2023/03/24 05:52:36;;;;;;;1.77;1.15;;;;;;;14.24;100.00;99664.97;5064215;28;20128;-76
2023/03/24 05:55:03;;;;;;;7.38;1.95;;;;;;;14.24;100.00;99692.81;5042983;28;20409;-75
2023/03/24 05:57:29;;;;;;;4.60;1.67;;;;;;;14.12;100.00;99695.56;5064221;28;20055;-77
2023/03/24 05:59:56;;;;;;;5.13;2.03;;;;;;;14.21;100.00;99699.22;5061163;28;20049;-73
2023/03/24 06:02:23;;;;;;;13.38;4.38;;;;;;;14.01;100.00;99707.00;5060594;28;20084;-76
2023/03/24 06:04:51;;;;;;;5.25;2.33;;;;;;;13.92;100.00;99700.56;5061341;28;20589;-76
2023/03/24 06:07:17;;;;;;;6.13;2.63;;;;;;;13.55;100.00;99713.19;5049084;28;20055;-73
2023/03/24 06:09:49;;;;;;;3.95;1.75;;;;;;;13.79;100.00;99719.22;5060819;28;20052;-77
2023/03/24 06:12:17;;;;;;;7.50;2.45;;;;;;;13.66;100.00;99726.75;5057320;28;20052;-73
2023/03/24 06:14:44;;;;;;;6.13;1.33;;;;;;;13.56;100.00;99728.63;5060995;28;20080;-74
2023/03/24 06:17:13;;;;;;;11.50;3.45;;;;;;;13.62;100.00;99726.09;5062860;28;20562;-77
2023/03/24 06:19:48;;;;;;;3.72;1.55;;;;;;;13.65;100.00;99731.56;5046808;28;20049;-75
2023/03/24 06:22:19;;;;;;;5.72;1.67;;;;;;;13.45;100.00;99730.16;5058198;28;20407;-78
2023/03/24 06:24:46;;;;;;;5.63;1.90;;;;;;;13.50;100.00;99735.94;5038633;28;20085;-74
2023/03/24 06:27:13;;;;;;;4.40;2.00;;;;;;;13.47;100.00;99747.97;5063518;28;20143;-75
2023/03/24 06:29:42;;;;;;;14.75;3.33;;;;;;;13.45;100.00;99763.50;5060583;28;20050;-74
2023/03/24 06:32:09;;;;;;;7.13;1.58;;;;;;;13.35;100.00;99745.91;5058881;28;20062;-75
2023/03/24 06:34:37;;;;;;;4.72;2.03;;;;;;;13.29;100.00;99744.13;5065757;28;20052;-78
2023/03/24 06:37:04;;;;;;;6.88;2.65;;;;;;;13.13;100.00;99741.38;5061346;28;20102;-74
2023/03/24 06:39:30;;;;;;;10.73;2.25;;;;;;;13.20;100.00;99746.75;5054901;28;20044;-73
2023/03/24 06:41:57;;;;;;;8.77;2.55;;;;;;;13.33;100.00;99745.56;5055090;28;20049;-75
2023/03/24 06:44:24;;;;;;;6.10;2.47;;;;;;;13.20;100.00;99755.84;5058533;28;20430;-74
2023/03/24 06:46:50;;;;;;;2.25;1.40;;;;;;;13.16;100.00;99754.41;5061106;28;20051;-74
2023/03/24 06:49:17;;;;;;;10.98;2.95;;;;;;;13.02;100.00;99760.31;5052911;28;20053;-75
2023/03/24 06:51:43;;;;;;;1.52;1.20;;;;;;;13.26;100.00;99751.31;5052961;28;20441;-75
2023/03/24 06:54:10;;;;;;;6.13;2.05;;;;;;;13.28;100.00;99762.78;5061855;28;20124;-75
2023/03/24 06:56:36;;;;;;;11.95;2.53;;;;;;;13.42;100.00;99759.59;5073895;28;20052;-75
2023/03/24 06:59:03;;;;;;;8.13;2.10;;;;;;;13.22;100.00;99767.28;5058436;28;20048;-73
2023/03/24 07:01:29;;;;;;;11.10;2.97;;;;;;;13.41;100.00;99768.38;5063900;28;20059;-78
2023/03/24 07:03:56;;;;;;;6.40;1.30;;;;;;;13.41;100.00;99773.94;5053183;28;20052;-75
2023/03/24 07:06:23;;;;;;;11.07;3.20;;;;;;;13.50;100.00;99769.28;5068299;28;20053;-72
2023/03/24 07:08:50;;;;;;;10.55;2.15;;;;;;;13.37;100.00;99779.59;5056037;28;20593;-77
2023/03/24 07:11:16;;;;;;;4.75;2.42;;;;;;;13.53;100.00;99773.22;5052436;28;20135;-75
2023/03/24 07:13:43;;;;;;;8.20;2.28;;;;;;;13.57;100.00;99776.66;5042652;28;20040;-77
2023/03/24 07:16:09;;;;;;;6.60;1.55;;;;;;;13.53;100.00;99781.56;5053342;28;20053;-78
2023/03/24 07:18:36;;;;;;;6.13;1.20;;;;;;;13.52;100.00;99780.75;5056823;28;20055;-77
2023/03/24 07:21:03;;;;;;;5.88;2.13;;;;;;;13.45;100.00;99780.97;5055770;28;20048;-75
2023/03/24 07:23:31;;;;;;;5.43;1.08;;;;;;;13.48;100.00;99774.53;5065181;28;20128;-77
2023/03/24 07:25:58;;;;;;;9.07;2.75;;;;;;;13.21;100.00;99776.84;5063670;28;20458;-73
2023/03/24 07:28:24;;;;;;;7.22;2.35;;;;;;;13.36;100.00;99780.81;5051977;28;20049;-76
2023/03/24 07:30:51;;;;;;;6.78;1.92;;;;;;;13.45;100.00;99780.16;5057345;28;20045;-75
2023/03/24 07:33:23;;;;;;;10.60;2.65;;;;;;;13.34;100.00;99791.59;5058662;28;20048;-74
2023/03/24 07:35:53;;;;;;;9.85;2.50;;;;;;;13.33;100.00;99762.22;5058558;28;20045;-77
2023/03/24 07:38:20;;;;;;;13.40;2.30;;;;;;;13.60;100.00;99770.22;5052951;28;20450;-77
2023/03/24 07:40:47;;;;;;;5.50;1.20;;;;;;;13.66;100.00;99787.91;5062130;28;20454;-76
2023/03/24 07:43:13;;;;;;;8.50;1.17;;;;;;;13.76;100.00;99787.63;5052749;28;20059;-76
2023/03/24 07:45:40;;;;;;;6.78;2.05;;;;;;;13.65;100.00;99806.59;5057410;28;20064;-75
2023/03/24 07:48:06;;;;;;;11.10;2.30;;;;;;;13.64;100.00;99796.72;5056706;28;20103;-76
2023/03/24 07:50:33;;;;;;;6.65;1.35;;;;;;;13.71;100.00;99798.50;5053101;28;20085;-74
2023/03/24 07:53:00;;;;;;;1.60;0.80;;;;;;;13.75;100.00;99785.28;5055188;28;20136;-76
2023/03/24 07:55:26;;;;;;;9.55;2.08;;;;;;;13.95;100.00;99795.00;5037469;28;20053;-76
2023/03/24 07:57:53;;;;;;;8.77;1.60;;;;;;;13.97;100.00;99789.78;5049565;28;20060;-74
2023/03/24 08:00:20;;;;;;;9.10;2.10;;;;;;;14.24;100.00;99798.53;5066506;28;20051;-74
2023/03/24 08:02:48;;;;;;;3.47;1.20;;;;;;;14.16;100.00;99802.72;5054395;28;20053;-78
2023/03/24 08:05:18;;;;;;;10.00;2.30;;;;;;;14.18;100.00;99819.72;5059116;28;20791;-76
2023/03/24 08:07:54;;;;;;;8.43;1.70;;;;;;;14.28;100.00;99813.09;5056781;28;20125;-77
2023/03/24 08:10:24;;;;;;;8.10;1.92;;;;;;;14.42;100.00;99829.38;5058611;28;20052;-74
2023/03/24 08:12:51;;;;;;;6.50;1.45;;;;;;;14.33;100.00;99820.91;5051834;28;20055;-75
2023/03/24 08:15:18;;;;;;;14.75;3.30;;;;;;;14.03;100.00;99821.38;5033506;28;20106;-73
2023/03/24 08:17:47;;;;;;;4.53;1.80;;;;;;;14.30;100.00;99832.94;5062789;28;20426;-76
2023/03/24 08:20:13;;;;;;;13.88;2.03;;;;;;;14.15;100.00;99836.53;5041591;28;20067;-77
2023/03/24 08:22:42;;;;;;;2.45;1.25;;;;;;;14.56;100.00;99826.16;5054150;28;20076;-75
2023/03/24 08:25:11;;;;;;;14.98;3.10;;;;;;;14.53;100.00;99857.66;5060022;28;20041;-76
2023/03/24 08:27:39;;;;;;;7.55;1.58;;;;;;;14.59;100.00;99839.19;5061133;28;20079;-76
2023/03/24 08:30:09;;;;;;;7.35;2.03;;;;;;;14.93;100.00;99847.66;5054561;28;20079;-76
2023/03/24 08:32:36;;;;;;;13.23;2.17;;;;;;;15.01;100.00;99834.25;5044751;28;20160;-76
2023/03/24 08:35:03;;;;;;;8.95;1.00;;;;;;;15.02;100.00;99847.72;5060903;28;20044;-75
2023/03/24 08:37:30;;;;;;;8.80;2.58;;;;;;;14.62;100.00;99859.78;5061955;28;20058;-75
2023/03/24 08:39:57;;;;;;;12.85;1.88;;;;;;;14.67;100.00;99862.00;5060973;28;20051;-75
2023/03/24 08:42:24;;;;;;;8.02;1.30;;;;;;;14.78;100.00;99849.31;5065287;28;20052;-75
2023/03/24 08:44:51;;;;;;;8.88;1.70;;;;;;;14.78;100.00;99840.97;5054834;28;20099;-75
2023/03/24 08:47:18;;;;;;;13.65;2.33;;;;;;;14.94;100.00;99846.41;5069130;28;20167;-74
2023/03/24 08:49:45;;;;;;;10.32;2.05;;;;;;;14.86;100.00;99847.09;5064232;28;20044;-76
2023/03/24 08:52:11;;;;;;;15.25;2.80;;;;;;;14.60;100.00;99856.66;5063113;28;20057;-73
2023/03/24 08:54:38;;;;;;;5.40;1.10;;;;;;;14.70;100.00;99850.78;5057919;28;20076;-76
2023/03/24 08:57:04;;;;;;;8.45;1.70;;;;;;;14.66;100.00;99858.47;5066002;28;20057;-75
2023/03/24 08:59:31;;;;;;;4.00;1.05;;;;;;;14.87;100.00;99851.41;5060454;28;20534;-74
2023/03/24 09:01:57;;;;;;;7.90;1.73;;;;;;;14.86;100.00;99850.66;5055496;28;20086;-75
2023/03/24 09:04:24;;;;;;;8.75;2.28;;;;;;;14.90;100.00;99847.75;5058814;28;20057;-76
2023/03/24 09:06:52;;;;;;;6.03;0.90;;;;;;;15.07;100.00;99855.53;5053136;28;21482;-75
2023/03/24 09:09:18;;;;;;;10.07;2.13;;;;;;;14.97;100.00;99850.28;5056686;28;20110;-77
2023/03/24 09:11:45;;;;;;;11.27;2.78;;;;;;;14.96;100.00;99848.75;5054387;28;20100;-75
2023/03/24 09:14:12;;;;;;;4.45;1.25;;;;;;;15.21;100.00;99869.00;5062983;28;20080;-74
2023/03/24 09:16:39;;;;;;;11.57;2.63;;;;;;;14.87;100.00;99862.56;5059312;28;20067;-76
2023/03/24 09:19:06;;;;;;;9.75;1.73;;;;;;;15.18;100.00;99860.72;5053036;28;20049;-75
2023/03/24 09:21:32;;;;;;;5.22;0.90;;;;;;;15.14;100.00;99866.44;5054043;28;20052;-75
2023/03/24 09:23:59;;;;;;;13.35;2.92;;;;;;;14.91;100.00;99886.28;5066332;28;20072;-76
2023/03/24 09:26:26;;;;;;;12.57;3.10;;;;;;;14.89;100.00;99882.41;5041435;28;20067;-75
2023/03/24 09:28:52;;;;;;;9.07;2.28;;;;;;;15.10;100.00;99882.50;5057507;28;20059;-76
2023/03/24 09:31:19;;;;;;;12.25;3.13;;;;;;;15.03;100.00;99871.59;5063270;28;20045;-75
2023/03/24 09:33:46;;;;;;;8.45;2.28;;;;;;;15.04;100.00;99883.50;5057522;28;20041;-75
2023/03/24 09:36:12;;;;;;;14.18;2.38;;;;;;;15.36;100.00;99878.44;5060574;28;20080;-75
2023/03/24 09:38:39;;;;;;;6.25;1.98;;;;;;;15.41;100.00;99891.03;5061229;28;20083;-75
2023/03/24 09:41:18;;;;;;;10.95;1.70;;;;;;;15.41;100.00;99872.31;5057933;28;20049;-74
2023/03/24 09:44:12;;;;;;;3.83;1.33;;;;;;;15.36;100.00;99886.06;5064765;28;20049;-75
2023/03/24 09:46:46;;;;;;;10.40;2.40;;;;;;;15.55;100.00;99884.22;5065322;28;20598;-75
2023/03/24 09:49:27;;;;;;;9.90;2.53;;;;;;;15.54;100.00;99866.72;5054621;28;20145;-76
2023/03/24 09:52:04;;;;;;;7.88;2.28;;;;;;;15.52;100.00;99868.41;5059459;28;20049;-76
2023/03/24 09:54:44;;;;;;;10.57;2.30;;;;;;;15.55;100.00;99884.22;5057620;28;20053;-76
2023/03/24 09:57:20;;;;;;;6.28;1.85;;;;;;;15.66;100.00;99890.97;5062794;28;20132;-77
2023/03/24 09:59:47;;;;;;;12.52;2.78;;;;;;;15.52;100.00;99885.13;5047056;28;20052;-76
2023/03/24 10:02:21;;;;;;;9.85;2.22;;;;;;;15.50;100.00;99888.34;5051230;28;20526;-75
2023/03/24 10:04:48;;;;;;;10.45;2.92;;;;;;;15.45;100.00;99914.78;5050594;28;20648;-76
2023/03/24 10:07:37;;;;;;;16.42;3.10;;;;;;;15.38;100.00;99881.59;5058520;28;20135;-76
2023/03/24 10:10:20;;;;;;;7.93;2.33;;;;;;;15.50;100.00;99917.00;5054814;28;20064;-77
2023/03/24 10:12:48;;;;;;;8.30;2.17;;;;;;;15.41;100.00;99900.19;5053024;28;20051;-76
2023/03/24 10:15:27;;;;;;;2.00;0.85;;;;;;;15.65;100.00;99903.34;5060926;28;20184;-76
2023/03/24 10:18:44;;;;;;;14.57;2.95;;;;;;;15.57;100.00;99911.19;5064217;28;20057;-77
2023/03/24 10:21:17;;;;;;;7.38;2.13;;;;;;;15.54;100.00;99908.53;5055544;28;20041;-77
2023/03/24 10:23:46;;;;;;;10.15;2.80;;;;;;;15.33;100.00;99912.75;5058261;28;20052;-76
2023/03/24 10:26:50;;;;;;;2.20;1.02;;;;;;;15.63;100.00;99914.19;5071218;28;20413;-77
2023/03/24 10:29:31;;;;;;;2.88;1.52;;;;;;;15.76;100.00;99917.72;5048979;28;20078;-75
2023/03/24 10:32:20;;;;;;;3.35;1.48;;;;;;;15.79;100.00;99916.81;5064104;28;20059;-78
2023/03/24 10:34:54;;;;;;;15.90;2.72;;;;;;;16.14;100.00;99921.16;5054362;28;21747;-76
2023/03/24 10:37:20;;;;;;;5.82;1.98;;;;;;;15.92;100.00;99919.53;5068697;28;20147;-78
2023/03/24 10:39:48;;;;;;;6.80;1.20;;;;;;;16.19;100.00;99919.75;5058607;28;20402;-77
2023/03/24 10:42:18;;;;;;;6.93;2.45;;;;;;;16.29;100.00;99918.59;5035459;28;20155;-76
2023/03/24 10:44:49;;;;;;;9.90;1.20;;;;;;;16.22;100.00;99927.22;5056463;28;20454;-76
2023/03/24 10:47:21;;;;;;;11.85;1.90;;;;;;;16.33;100.00;99913.69;5038407;28;20506;-77
2023/03/24 10:49:57;;;;;;;3.63;1.40;;;;;;;16.20;100.00;99926.91;5061283;28;20048;-74
2023/03/24 10:52:24;;;;;;;6.55;1.75;;;;;;;16.35;100.00;99925.94;5055198;28;20105;-77
2023/03/24 10:55:02;;;;;;;8.88;2.15;;;;;;;16.29;100.00;99926.97;5055836;28;20064;-76
2023/03/24 10:57:29;;;;;;;10.50;2.45;;;;;;;16.35;100.00;99941.91;5061761;28;20071;-76
2023/03/24 11:00:00;;;;;;;7.80;2.10;;;;;;;16.61;100.00;99927.34;5059836;28;20055;-77
2023/03/24 11:02:31;;;;;;;6.57;1.60;;;;;;;16.85;100.00;99920.06;5047647;28;20109;-76
2023/03/24 11:05:18;;;;;;;3.92;1.45;;;;;;;16.66;100.00;99924.00;5035772;28;20055;-75
2023/03/24 11:07:47;;;;;;;6.22;1.40;;;;;;;16.54;100.00;99941.59;5050355;28;20650;-77
2023/03/24 11:10:17;;;;;;;6.13;1.40;;;;;;;16.39;100.00;99925.78;5039432;28;20608;-76
2023/03/24 11:12:53;;;;;;;3.78;0.90;;;;;;;16.38;100.00;99935.41;5055918;28;20045;-75
2023/03/24 11:15:21;;;;;;;3.83;1.20;;;;;;;16.31;100.00;99946.84;5059016;28;20082;-79
2023/03/24 11:17:57;;;;;;;2.22;0.90;;;;;;;16.31;100.00;99938.47;5061142;28;21890;-76
2023/03/24 11:20:31;;;;;;;7.35;0.93;;;;;;;16.21;100.00;99936.84;5041315;28;20044;-77
2023/03/24 11:23:26;;;;;;;4.55;0.80;;;;;;;16.20;100.00;99938.84;5067283;28;20057;-75
2023/03/24 11:26:27;;;;;;;8.73;1.42;;;;;;;16.20;100.00;99924.13;5064654;28;20059;-76
2023/03/24 11:28:57;;;;;;;7.43;1.88;;;;;;;15.88;100.00;99944.00;5067003;28;20056;-78
2023/03/24 11:31:25;;;;;;;11.95;2.15;;;;;;;15.77;100.00;99960.34;5057075;28;20076;-78
2023/03/24 11:34:09;;;;;;;2.95;0.95;;;;;;;16.14;100.00;99937.91;5056762;28;20118;-78
2023/03/24 11:36:37;;;;;;;2.50;1.40;;;;;;;16.41;100.00;99934.50;5064443;28;20052;-76
2023/03/24 11:39:22;;;;;;;8.65;1.75;;;;;;;16.82;100.00;99932.16;5059687;28;20063;-76
2023/03/24 11:42:11;;;;;;;8.90;1.33;;;;;;;17.35;100.00;99941.97;5058893;28;20056;-77
2023/03/24 11:44:38;;;;;;;5.88;1.58;;;;;;;17.60;100.00;99932.59;5051728;28;20542;-76